sensor_id;sensor_type;location;lat;lon;timestamp;P1;durP1;ratioP1;P2;durP2;ratioP2
78197;SDS011;67472;51.554;7.812;2023-04-01T00:00:35;3.63;;;1.38;;
78197;SDS011;67472;51.554;7.812;2023-04-01T00:03:20;3.70;;;1.15;;
78197;SDS011;67472;51.554;7.812;2023-04-01T00:06:06;3.88;;;1.20;;
78197;SDS011;67472;51.554;7.812;2023-04-01T00:08:51;5.28;;;0.80;;
78197;SDS011;67472;51.554;7.812;2023-04-01T00:11:37;1.70;;;1.38;;
78197;SDS011;67472;51.554;7.812;2023-04-01T00:14:22;2.30;;;1.27;;
78197;SDS011;67472;51.554;7.812;2023-04-01T00:17:07;1.85;;;0.90;;
78197;SDS011;67472;51.554;7.812;2023-04-01T00:19:54;3.08;;;1.27;;
78197;SDS011;67472;51.554;7.812;2023-04-01T00:22:40;1.70;;;0.70;;
78197;SDS011;67472;51.554;7.812;2023-04-01T00:25:25;2.83;;;1.10;;
78197;SDS011;67472;51.554;7.812;2023-04-01T00:28:10;1.08;;;0.80;;
78197;SDS011;67472;51.554;7.812;2023-04-01T00:30:55;2.92;;;0.90;;
78197;SDS011;67472;51.554;7.812;2023-04-01T00:33:40;5.03;;;0.90;;
78197;SDS011;67472;51.554;7.812;2023-04-01T00:36:25;2.53;;;0.90;;
78197;SDS011;67472;51.554;7.812;2023-04-01T00:39:11;4.43;;;0.80;;
78197;SDS011;67472;51.554;7.812;2023-04-01T00:41:55;1.50;;;0.70;;
78197;SDS011;67472;51.554;7.812;2023-04-01T00:44:41;3.17;;;1.00;;
78197;SDS011;67472;51.554;7.812;2023-04-01T00:47:27;1.30;;;0.60;;
78197;SDS011;67472;51.554;7.812;2023-04-01T00:50:12;2.72;;;0.80;;
78197;SDS011;67472;51.554;7.812;2023-04-01T00:52:58;2.13;;;0.90;;
78197;SDS011;67472;51.554;7.812;2023-04-01T00:55:46;3.03;;;1.00;;
78197;SDS011;67472;51.554;7.812;2023-04-01T00:58:54;1.00;;;0.90;;
78197;SDS011;67472;51.554;7.812;2023-04-01T01:01:45;1.63;;;1.10;;
78197;SDS011;67472;51.554;7.812;2023-04-01T01:04:31;1.75;;;0.70;;
78197;SDS011;67472;51.554;7.812;2023-04-01T01:10:29;2.42;;;0.80;;
78197;SDS011;67472;51.554;7.812;2023-04-01T01:13:29;3.92;;;0.80;;
78197;SDS011;67472;51.554;7.812;2023-04-01T01:16:22;1.23;;;0.85;;
78197;SDS011;67472;51.554;7.812;2023-04-01T01:25:07;0.90;;;0.90;;
78197;SDS011;67472;51.554;7.812;2023-04-01T01:34:54;0.90;;;0.73;;
78197;SDS011;67472;51.554;7.812;2023-04-01T01:37:40;1.20;;;0.75;;
78197;SDS011;67472;51.554;7.812;2023-04-01T01:40:28;1.70;;;0.77;;
78197;SDS011;67472;51.554;7.812;2023-04-01T01:43:16;2.13;;;0.60;;
78197;SDS011;67472;51.554;7.812;2023-04-01T01:46:05;1.80;;;1.10;;
78197;SDS011;67472;51.554;7.812;2023-04-01T01:48:55;1.50;;;0.65;;
78197;SDS011;67472;51.554;7.812;2023-04-01T01:51:40;0.60;;;0.60;;
78197;SDS011;67472;51.554;7.812;2023-04-01T01:54:29;2.22;;;0.85;;
78197;SDS011;67472;51.554;7.812;2023-04-01T01:57:14;2.08;;;0.80;;
78197;SDS011;67472;51.554;7.812;2023-04-01T02:00:07;2.35;;;0.80;;
78197;SDS011;67472;51.554;7.812;2023-04-01T02:02:58;2.65;;;1.05;;
78197;SDS011;67472;51.554;7.812;2023-04-01T02:05:44;2.13;;;0.75;;
78197;SDS011;67472;51.554;7.812;2023-04-01T02:08:35;4.72;;;0.80;;
78197;SDS011;67472;51.554;7.812;2023-04-01T02:11:29;0.82;;;0.50;;
78197;SDS011;67472;51.554;7.812;2023-04-01T02:17:10;2.05;;;0.80;;
78197;SDS011;67472;51.554;7.812;2023-04-01T02:20:04;1.98;;;0.90;;
78197;SDS011;67472;51.554;7.812;2023-04-01T02:22:54;2.22;;;0.80;;
78197;SDS011;67472;51.554;7.812;2023-04-01T02:25:41;0.70;;;0.60;;
78197;SDS011;67472;51.554;7.812;2023-04-01T02:28:27;1.00;;;0.60;;
78197;SDS011;67472;51.554;7.812;2023-04-01T02:31:14;3.75;;;0.85;;
78197;SDS011;67472;51.554;7.812;2023-04-01T02:33:59;0.70;;;0.70;;
78197;SDS011;67472;51.554;7.812;2023-04-01T02:36:45;3.45;;;0.82;;
78197;SDS011;67472;51.554;7.812;2023-04-01T02:39:32;2.13;;;0.57;;
78197;SDS011;67472;51.554;7.812;2023-04-01T02:42:17;1.85;;;0.70;;
78197;SDS011;67472;51.554;7.812;2023-04-01T02:45:02;1.55;;;0.55;;
78197;SDS011;67472;51.554;7.812;2023-04-01T02:47:48;1.65;;;0.80;;
78197;SDS011;67472;51.554;7.812;2023-04-01T02:50:33;1.85;;;0.70;;
78197;SDS011;67472;51.554;7.812;2023-04-01T02:53:19;0.90;;;0.70;;
78197;SDS011;67472;51.554;7.812;2023-04-01T02:56:04;0.82;;;0.60;;
78197;SDS011;67472;51.554;7.812;2023-04-01T02:58:49;3.35;;;0.52;;
78197;SDS011;67472;51.554;7.812;2023-04-01T03:01:35;0.55;;;0.50;;
78197;SDS011;67472;51.554;7.812;2023-04-01T03:04:20;0.35;;;0.35;;
78197;SDS011;67472;51.554;7.812;2023-04-01T03:07:05;0.65;;;0.40;;
78197;SDS011;67472;51.554;7.812;2023-04-01T03:09:50;0.55;;;0.50;;
78197;SDS011;67472;51.554;7.812;2023-04-01T03:12:35;1.90;;;0.60;;
78197;SDS011;67472;51.554;7.812;2023-04-01T03:15:20;2.83;;;2.17;;
78197;SDS011;67472;51.554;7.812;2023-04-01T03:18:05;1.13;;;0.50;;
78197;SDS011;67472;51.554;7.812;2023-04-01T03:20:50;0.50;;;0.50;;
78197;SDS011;67472;51.554;7.812;2023-04-01T03:23:35;1.63;;;0.68;;
78197;SDS011;67472;51.554;7.812;2023-04-01T03:26:20;0.50;;;0.50;;
78197;SDS011;67472;51.554;7.812;2023-04-01T03:29:06;0.50;;;0.50;;
78197;SDS011;67472;51.554;7.812;2023-04-01T03:31:51;0.43;;;0.43;;
78197;SDS011;67472;51.554;7.812;2023-04-01T03:34:35;0.63;;;0.50;;
78197;SDS011;67472;51.554;7.812;2023-04-01T03:37:20;0.40;;;0.40;;
78197;SDS011;67472;51.554;7.812;2023-04-01T03:40:05;0.52;;;0.52;;
78197;SDS011;67472;51.554;7.812;2023-04-01T03:42:51;0.70;;;0.40;;
78197;SDS011;67472;51.554;7.812;2023-04-01T03:45:44;0.70;;;0.50;;
78197;SDS011;67472;51.554;7.812;2023-04-01T03:48:30;0.30;;;0.30;;
78197;SDS011;67472;51.554;7.812;2023-04-01T03:51:15;0.40;;;0.40;;
78197;SDS011;67472;51.554;7.812;2023-04-01T03:54:00;0.70;;;0.40;;
78197;SDS011;67472;51.554;7.812;2023-04-01T03:56:46;0.40;;;0.40;;
78197;SDS011;67472;51.554;7.812;2023-04-01T03:59:31;1.10;;;0.40;;
78197;SDS011;67472;51.554;7.812;2023-04-01T04:02:16;0.43;;;0.43;;
78197;SDS011;67472;51.554;7.812;2023-04-01T04:05:01;0.45;;;0.40;;
78197;SDS011;67472;51.554;7.812;2023-04-01T04:07:46;0.47;;;0.47;;
78197;SDS011;67472;51.554;7.812;2023-04-01T04:10:31;0.52;;;0.50;;
78197;SDS011;67472;51.554;7.812;2023-04-01T04:13:16;0.63;;;0.40;;
78197;SDS011;67472;51.554;7.812;2023-04-01T04:16:08;0.45;;;0.45;;
78197;SDS011;67472;51.554;7.812;2023-04-01T04:18:57;0.40;;;0.40;;
78197;SDS011;67472;51.554;7.812;2023-04-01T04:21:42;1.10;;;0.40;;
78197;SDS011;67472;51.554;7.812;2023-04-01T04:24:27;0.50;;;0.40;;
78197;SDS011;67472;51.554;7.812;2023-04-01T04:27:26;0.57;;;0.43;;
78197;SDS011;67472;51.554;7.812;2023-04-01T04:30:25;0.32;;;0.32;;
78197;SDS011;67472;51.554;7.812;2023-04-01T04:33:10;3.97;;;0.57;;
78197;SDS011;67472;51.554;7.812;2023-04-01T04:35:55;0.40;;;0.40;;
78197;SDS011;67472;51.554;7.812;2023-04-01T04:38:42;0.30;;;0.30;;
78197;SDS011;67472;51.554;7.812;2023-04-01T04:41:26;0.57;;;0.40;;
78197;SDS011;67472;51.554;7.812;2023-04-01T04:44:12;0.57;;;0.40;;
78197;SDS011;67472;51.554;7.812;2023-04-01T04:46:56;1.98;;;0.45;;
78197;SDS011;67472;51.554;7.812;2023-04-01T04:49:41;2.58;;;0.70;;
78197;SDS011;67472;51.554;7.812;2023-04-01T04:52:27;1.88;;;0.40;;
78197;SDS011;67472;51.554;7.812;2023-04-01T04:55:12;0.70;;;0.60;;
78197;SDS011;67472;51.554;7.812;2023-04-01T04:58:00;1.30;;;0.50;;
78197;SDS011;67472;51.554;7.812;2023-04-01T05:00:46;1.85;;;0.57;;
78197;SDS011;67472;51.554;7.812;2023-04-01T05:03:38;1.42;;;0.52;;
78197;SDS011;67472;51.554;7.812;2023-04-01T05:06:24;0.77;;;0.75;;
78197;SDS011;67472;51.554;7.812;2023-04-01T05:09:10;0.57;;;0.50;;
78197;SDS011;67472;51.554;7.812;2023-04-01T05:11:55;0.85;;;0.60;;
78197;SDS011;67472;51.554;7.812;2023-04-01T05:14:41;0.63;;;0.63;;
78197;SDS011;67472;51.554;7.812;2023-04-01T05:17:28;0.70;;;0.70;;
78197;SDS011;67472;51.554;7.812;2023-04-01T05:20:13;1.30;;;0.50;;
78197;SDS011;67472;51.554;7.812;2023-04-01T05:22:59;0.75;;;0.70;;
78197;SDS011;67472;51.554;7.812;2023-04-01T05:25:45;0.60;;;0.60;;
78197;SDS011;67472;51.554;7.812;2023-04-01T05:28:30;0.68;;;0.68;;
78197;SDS011;67472;51.554;7.812;2023-04-01T05:31:15;0.60;;;0.60;;
78197;SDS011;67472;51.554;7.812;2023-04-01T05:34:02;0.60;;;0.60;;
78197;SDS011;67472;51.554;7.812;2023-04-01T05:36:47;1.25;;;0.90;;
78197;SDS011;67472;51.554;7.812;2023-04-01T05:39:37;0.70;;;0.70;;
78197;SDS011;67472;51.554;7.812;2023-04-01T05:42:22;0.50;;;0.50;;
78197;SDS011;67472;51.554;7.812;2023-04-01T05:45:07;0.50;;;0.50;;
78197;SDS011;67472;51.554;7.812;2023-04-01T05:48:11;0.60;;;0.60;;
78197;SDS011;67472;51.554;7.812;2023-04-01T05:50:58;0.80;;;0.80;;
78197;SDS011;67472;51.554;7.812;2023-04-01T05:53:43;1.30;;;0.75;;
78197;SDS011;67472;51.554;7.812;2023-04-01T05:56:28;0.60;;;0.60;;
78197;SDS011;67472;51.554;7.812;2023-04-01T05:59:13;1.20;;;0.80;;
78197;SDS011;67472;51.554;7.812;2023-04-01T06:01:59;0.70;;;0.70;;
78197;SDS011;67472;51.554;7.812;2023-04-01T06:04:44;0.85;;;0.85;;
78197;SDS011;67472;51.554;7.812;2023-04-01T06:07:29;0.80;;;0.80;;
78197;SDS011;67472;51.554;7.812;2023-04-01T06:10:18;0.68;;;0.68;;
78197;SDS011;67472;51.554;7.812;2023-04-01T06:13:13;2.17;;;0.77;;
78197;SDS011;67472;51.554;7.812;2023-04-01T06:19:24;0.68;;;0.68;;
78197;SDS011;67472;51.554;7.812;2023-04-01T06:35:08;0.77;;;0.70;;
78197;SDS011;67472;51.554;7.812;2023-04-01T06:38:11;0.80;;;0.80;;
78197;SDS011;67472;51.554;7.812;2023-04-01T06:47:47;0.80;;;0.80;;
78197;SDS011;67472;51.554;7.812;2023-04-01T06:51:19;0.50;;;0.50;;
78197;SDS011;67472;51.554;7.812;2023-04-01T06:54:33;0.60;;;0.60;;
78197;SDS011;67472;51.554;7.812;2023-04-01T06:57:45;0.55;;;0.55;;
78197;SDS011;67472;51.554;7.812;2023-04-01T07:00:35;0.60;;;0.60;;
78197;SDS011;67472;51.554;7.812;2023-04-01T07:03:36;0.40;;;0.40;;
78197;SDS011;67472;51.554;7.812;2023-04-01T07:06:36;0.70;;;0.70;;
78197;SDS011;67472;51.554;7.812;2023-04-01T07:09:43;1.13;;;1.02;;
78197;SDS011;67472;51.554;7.812;2023-04-01T07:12:48;3.75;;;0.63;;
78197;SDS011;67472;51.554;7.812;2023-04-01T07:16:05;0.95;;;0.60;;
78197;SDS011;67472;51.554;7.812;2023-04-01T07:22:31;1.30;;;1.20;;
78197;SDS011;67472;51.554;7.812;2023-04-01T07:25:39;2.65;;;2.05;;
78197;SDS011;67472;51.554;7.812;2023-04-01T07:28:57;4.85;;;2.85;;
78197;SDS011;67472;51.554;7.812;2023-04-01T07:35:23;0.52;;;0.52;;
78197;SDS011;67472;51.554;7.812;2023-04-01T07:38:38;1.85;;;0.70;;
78197;SDS011;67472;51.554;7.812;2023-04-01T07:41:37;0.88;;;0.88;;
78197;SDS011;67472;51.554;7.812;2023-04-01T07:50:37;0.80;;;0.80;;
78197;SDS011;67472;51.554;7.812;2023-04-01T07:53:30;1.70;;;0.70;;
78197;SDS011;67472;51.554;7.812;2023-04-01T07:56:28;0.60;;;0.60;;
78197;SDS011;67472;51.554;7.812;2023-04-01T07:59:33;0.50;;;0.50;;
78197;SDS011;67472;51.554;7.812;2023-04-01T08:06:35;1.38;;;0.75;;
78197;SDS011;67472;51.554;7.812;2023-04-01T08:09:33;0.40;;;0.40;;
78197;SDS011;67472;51.554;7.812;2023-04-01T08:13:07;0.95;;;0.60;;
78197;SDS011;67472;51.554;7.812;2023-04-01T08:16:26;0.50;;;0.50;;
78197;SDS011;67472;51.554;7.812;2023-04-01T08:19:31;0.88;;;0.73;;
78197;SDS011;67472;51.554;7.812;2023-04-01T08:22:22;0.70;;;0.70;;
78197;SDS011;67472;51.554;7.812;2023-04-01T08:25:19;0.50;;;0.50;;
78197;SDS011;67472;51.554;7.812;2023-04-01T08:28:22;0.50;;;0.50;;
78197;SDS011;67472;51.554;7.812;2023-04-01T08:32:01;1.10;;;1.00;;
78197;SDS011;67472;51.554;7.812;2023-04-01T08:38:01;0.95;;;0.95;;
78197;SDS011;67472;51.554;7.812;2023-04-01T08:40:57;0.52;;;0.52;;
78197;SDS011;67472;51.554;7.812;2023-04-01T08:56:22;1.85;;;0.95;;
78197;SDS011;67472;51.554;7.812;2023-04-01T09:06:39;1.33;;;0.65;;
78197;SDS011;67472;51.554;7.812;2023-04-01T09:09:48;0.98;;;0.90;;
78197;SDS011;67472;51.554;7.812;2023-04-01T09:19:24;0.70;;;0.70;;
78197;SDS011;67472;51.554;7.812;2023-04-01T09:34:55;0.90;;;0.70;;
78197;SDS011;67472;51.554;7.812;2023-04-01T10:14:37;1.00;;;1.00;;
78197;SDS011;67472;51.554;7.812;2023-04-01T10:46:45;3.38;;;1.55;;
78197;SDS011;67472;51.554;7.812;2023-04-01T10:59:53;1.85;;;1.67;;
78197;SDS011;67472;51.554;7.812;2023-04-01T11:32:25;2.80;;;2.60;;
78197;SDS011;67472;51.554;7.812;2023-04-01T12:03:47;9.93;;;4.55;;
78197;SDS011;67472;51.554;7.812;2023-04-01T12:06:48;9.25;;;3.60;;
78197;SDS011;67472;51.554;7.812;2023-04-01T12:09:52;3.10;;;2.35;;
78197;SDS011;67472;51.554;7.812;2023-04-01T12:13:13;2.25;;;2.05;;
78197;SDS011;67472;51.554;7.812;2023-04-01T12:16:13;2.50;;;2.30;;
78197;SDS011;67472;51.554;7.812;2023-04-01T12:19:42;2.45;;;2.25;;
78197;SDS011;67472;51.554;7.812;2023-04-01T12:22:43;2.83;;;2.42;;
78197;SDS011;67472;51.554;7.812;2023-04-01T12:25:42;3.75;;;2.45;;
78197;SDS011;67472;51.554;7.812;2023-04-01T12:32:34;1.83;;;1.73;;
78197;SDS011;67472;51.554;7.812;2023-04-01T12:37:54;2.40;;;1.80;;
78197;SDS011;67472;51.554;7.812;2023-04-01T12:50:54;2.45;;;1.85;;
78197;SDS011;67472;51.554;7.812;2023-04-01T12:57:41;2.80;;;2.55;;
78197;SDS011;67472;51.554;7.812;2023-04-01T13:00:44;3.15;;;2.75;;
78197;SDS011;67472;51.554;7.812;2023-04-01T13:07:22;1.95;;;1.85;;
78197;SDS011;67472;51.554;7.812;2023-04-01T13:16:27;2.22;;;1.67;;
78197;SDS011;67472;51.554;7.812;2023-04-01T13:22:13;1.65;;;1.55;;
78197;SDS011;67472;51.554;7.812;2023-04-01T13:28:25;2.03;;;1.90;;
78197;SDS011;67472;51.554;7.812;2023-04-01T13:40:32;2.10;;;2.00;;
78197;SDS011;67472;51.554;7.812;2023-04-01T13:43:34;4.18;;;3.58;;
78197;SDS011;67472;51.554;7.812;2023-04-01T13:49:57;3.47;;;3.15;;
78197;SDS011;67472;51.554;7.812;2023-04-01T13:56:00;4.10;;;3.60;;
78197;SDS011;67472;51.554;7.812;2023-04-01T13:59:25;6.50;;;3.88;;
78197;SDS011;67472;51.554;7.812;2023-04-01T14:15:21;5.13;;;4.32;;
78197;SDS011;67472;51.554;7.812;2023-04-01T14:27:18;5.82;;;3.85;;
78197;SDS011;67472;51.554;7.812;2023-04-01T14:39:43;6.13;;;5.05;;
78197;SDS011;67472;51.554;7.812;2023-04-01T14:48:57;6.22;;;5.63;;
78197;SDS011;67472;51.554;7.812;2023-04-01T14:51:46;5.78;;;5.18;;
78197;SDS011;67472;51.554;7.812;2023-04-01T14:54:34;4.78;;;4.30;;
78197;SDS011;67472;51.554;7.812;2023-04-01T14:57:29;4.45;;;4.05;;
78197;SDS011;67472;51.554;7.812;2023-04-01T15:00:18;4.38;;;3.97;;
78197;SDS011;67472;51.554;7.812;2023-04-01T15:03:22;4.88;;;4.43;;
78197;SDS011;67472;51.554;7.812;2023-04-01T15:12:34;3.78;;;3.28;;
78197;SDS011;67472;51.554;7.812;2023-04-01T15:28:06;2.90;;;2.70;;
78197;SDS011;67472;51.554;7.812;2023-04-01T15:40:23;2.85;;;2.65;;
78197;SDS011;67472;51.554;7.812;2023-04-01T15:46:44;3.38;;;3.08;;
78197;SDS011;67472;51.554;7.812;2023-04-01T15:49:42;3.10;;;2.83;;
78197;SDS011;67472;51.554;7.812;2023-04-01T15:52:40;4.25;;;3.42;;
78197;SDS011;67472;51.554;7.812;2023-04-01T16:14:54;5.25;;;4.75;;
78197;SDS011;67472;51.554;7.812;2023-04-01T16:26:48;9.48;;;7.70;;
78197;SDS011;67472;51.554;7.812;2023-04-01T16:35:59;9.45;;;6.85;;
78197;SDS011;67472;51.554;7.812;2023-04-01T16:42:19;13.05;;;9.32;;
78197;SDS011;67472;51.554;7.812;2023-04-01T16:48:15;10.88;;;9.32;;
78197;SDS011;67472;51.554;7.812;2023-04-01T16:51:09;12.15;;;10.27;;
78197;SDS011;67472;51.554;7.812;2023-04-01T16:57:02;13.02;;;9.68;;
78197;SDS011;67472;51.554;7.812;2023-04-01T17:23:59;15.98;;;12.27;;
78197;SDS011;67472;51.554;7.812;2023-04-01T17:35:58;11.85;;;10.48;;
78197;SDS011;67472;51.554;7.812;2023-04-01T17:38:54;13.45;;;10.38;;
78197;SDS011;67472;51.554;7.812;2023-04-01T17:48:08;9.10;;;7.38;;
78197;SDS011;67472;51.554;7.812;2023-04-01T17:54:06;7.57;;;6.53;;
78197;SDS011;67472;51.554;7.812;2023-04-01T17:57:07;7.32;;;6.60;;
78197;SDS011;67472;51.554;7.812;2023-04-01T18:03:38;8.15;;;7.18;;
78197;SDS011;67472;51.554;7.812;2023-04-01T18:06:33;8.70;;;7.78;;
78197;SDS011;67472;51.554;7.812;2023-04-01T18:15:43;7.60;;;6.78;;
78197;SDS011;67472;51.554;7.812;2023-04-01T18:18:58;6.97;;;6.35;;
78197;SDS011;67472;51.554;7.812;2023-04-01T18:21:53;7.10;;;6.25;;
78197;SDS011;67472;51.554;7.812;2023-04-01T18:24:49;8.07;;;7.28;;
78197;SDS011;67472;51.554;7.812;2023-04-01T18:27:46;7.68;;;6.93;;
78197;SDS011;67472;51.554;7.812;2023-04-01T18:30:38;10.73;;;8.93;;
78197;SDS011;67472;51.554;7.812;2023-04-01T18:33:36;8.70;;;7.90;;
78197;SDS011;67472;51.554;7.812;2023-04-01T18:36:37;8.70;;;7.72;;
78197;SDS011;67472;51.554;7.812;2023-04-01T18:39:41;8.85;;;7.55;;
78197;SDS011;67472;51.554;7.812;2023-04-01T18:55:21;9.32;;;7.30;;
78197;SDS011;67472;51.554;7.812;2023-04-01T18:58:28;10.30;;;7.53;;
78197;SDS011;67472;51.554;7.812;2023-04-01T19:01:23;9.52;;;8.50;;
78197;SDS011;67472;51.554;7.812;2023-04-01T19:13:35;11.02;;;8.45;;
78197;SDS011;67472;51.554;7.812;2023-04-01T19:19:41;12.55;;;10.50;;
78197;SDS011;67472;51.554;7.812;2023-04-01T19:25:37;13.23;;;10.43;;
78197;SDS011;67472;51.554;7.812;2023-04-01T19:40:35;11.30;;;9.55;;
78197;SDS011;67472;51.554;7.812;2023-04-01T19:52:38;13.55;;;11.32;;
78197;SDS011;67472;51.554;7.812;2023-04-01T20:05:28;16.38;;;10.68;;
78197;SDS011;67472;51.554;7.812;2023-04-01T20:11:38;14.70;;;11.65;;
78197;SDS011;67472;51.554;7.812;2023-04-01T20:14:45;15.32;;;11.80;;
78197;SDS011;67472;51.554;7.812;2023-04-01T20:20:23;13.05;;;10.73;;
78197;SDS011;67472;51.554;7.812;2023-04-01T20:25:57;11.30;;;9.98;;
78197;SDS011;67472;51.554;7.812;2023-04-01T20:28:55;15.10;;;12.38;;
78197;SDS011;67472;51.554;7.812;2023-04-01T20:32:11;19.65;;;15.55;;
78197;SDS011;67472;51.554;7.812;2023-04-01T20:35:08;6.18;;;5.55;;
78197;SDS011;67472;51.554;7.812;2023-04-01T20:41:25;4.07;;;3.50;;
78197;SDS011;67472;51.554;7.812;2023-04-01T20:44:31;5.05;;;4.35;;
78197;SDS011;67472;51.554;7.812;2023-04-01T20:47:22;4.82;;;4.38;;
78197;SDS011;67472;51.554;7.812;2023-04-01T20:59:36;6.20;;;4.93;;
78197;SDS011;67472;51.554;7.812;2023-04-01T21:05:52;9.10;;;4.93;;
78197;SDS011;67472;51.554;7.812;2023-04-01T21:11:53;5.53;;;4.80;;
78197;SDS011;67472;51.554;7.812;2023-04-01T21:21:29;5.55;;;5.05;;
78197;SDS011;67472;51.554;7.812;2023-04-01T21:27:42;5.03;;;4.47;;
78197;SDS011;67472;51.554;7.812;2023-04-01T21:30:49;4.70;;;3.95;;
78197;SDS011;67472;51.554;7.812;2023-04-01T21:48:53;4.20;;;3.80;;
78197;SDS011;67472;51.554;7.812;2023-04-01T21:52:32;4.63;;;4.22;;
78197;SDS011;67472;51.554;7.812;2023-04-01T22:11:27;4.65;;;4.25;;
78197;SDS011;67472;51.554;7.812;2023-04-01T22:14:25;4.45;;;4.03;;
78197;SDS011;67472;51.554;7.812;2023-04-01T22:20:14;3.88;;;3.55;;
78197;SDS011;67472;51.554;7.812;2023-04-01T22:23:23;3.47;;;3.17;;
78197;SDS011;67472;51.554;7.812;2023-04-01T22:26:19;3.90;;;3.60;;
78197;SDS011;67472;51.554;7.812;2023-04-01T22:29:18;4.03;;;3.55;;
78197;SDS011;67472;51.554;7.812;2023-04-01T22:32:32;3.90;;;3.60;;
78197;SDS011;67472;51.554;7.812;2023-04-01T22:54:34;4.15;;;3.78;;
78197;SDS011;67472;51.554;7.812;2023-04-01T23:00:28;4.00;;;3.70;;
78197;SDS011;67472;51.554;7.812;2023-04-01T23:03:37;4.63;;;4.20;;
78197;SDS011;67472;51.554;7.812;2023-04-01T23:06:31;4.53;;;4.13;;
78197;SDS011;67472;51.554;7.812;2023-04-01T23:09:26;4.00;;;3.70;;
78197;SDS011;67472;51.554;7.812;2023-04-01T23:12:17;4.10;;;3.70;;
78197;SDS011;67472;51.554;7.812;2023-04-01T23:15:08;4.53;;;4.20;;
78197;SDS011;67472;51.554;7.812;2023-04-01T23:18:01;5.22;;;4.72;;
78197;SDS011;67472;51.554;7.812;2023-04-01T23:23:53;4.22;;;3.90;;
78197;SDS011;67472;51.554;7.812;2023-04-01T23:26:45;3.83;;;3.47;;
78197;SDS011;67472;51.554;7.812;2023-04-01T23:29:37;4.40;;;4.00;;
78197;SDS011;67472;51.554;7.812;2023-04-01T23:32:27;4.22;;;3.83;;
78197;SDS011;67472;51.554;7.812;2023-04-01T23:35:14;3.75;;;3.45;;
78197;SDS011;67472;51.554;7.812;2023-04-01T23:38:01;6.00;;;5.10;;
78197;SDS011;67472;51.554;7.812;2023-04-01T23:40:49;4.25;;;3.90;;
78197;SDS011;67472;51.554;7.812;2023-04-01T23:43:37;4.88;;;4.38;;
78197;SDS011;67472;51.554;7.812;2023-04-01T23:46:25;5.18;;;4.68;;
78197;SDS011;67472;51.554;7.812;2023-04-01T23:49:15;6.32;;;5.07;;
78197;SDS011;67472;51.554;7.812;2023-04-01T23:52:12;5.72;;;5.22;;
